Time;durP1;ratioP1;P1;durP2;ratioP2;P2;SDS_P1;SDS_P2;PMS_P1;PMS_P2;Temp;Humidity;BMP_temperature;BMP_pressure;BME280_temperature;BME280_humidity;BME280_pressure;Samples;Min_cycle;Max_cycle;Signal;HPM_P1;HPM_P2
2021/08/21 00:02:27;;;;;;;3.67;2.20;;;14.50;99.90;;;;;;5025191;28;20248;-62
2021/08/21 00:04:56;;;;;;;3.23;2.07;;;14.50;99.90;;;;;;5029850;28;20267;-63
2021/08/21 00:07:24;;;;;;;2.40;2.20;;;14.50;99.90;;;;;;5024179;28;20735;-62
2021/08/21 00:09:52;;;;;;;2.40;2.20;;;14.30;99.90;;;;;;5020611;28;20329;-62
2021/08/21 00:12:20;;;;;;;2.63;2.43;;;14.30;99.90;;;;;;5021107;28;20883;-62
2021/08/21 00:14:49;;;;;;;2.70;2.50;;;14.40;99.90;;;;;;5025826;28;20742;-63
2021/08/21 00:17:17;;;;;;;2.20;2.00;;;14.30;99.90;;;;;;5022202;28;20236;-62
2021/08/21 00:19:46;;;;;;;2.60;1.93;;;14.30;99.90;;;;;;5022275;28;20323;-62
2021/08/21 00:22:14;;;;;;;3.43;2.50;;;14.20;99.90;;;;;;5025626;28;20224;-63
2021/08/21 00:24:42;;;;;;;3.87;2.40;;;14.30;99.90;;;;;;5029041;28;20729;-63
2021/08/21 00:27:11;;;;;;;2.70;2.40;;;14.30;99.90;;;;;;5027686;28;20255;-62
2021/08/21 00:29:39;;;;;;;4.07;2.50;;;14.30;99.90;;;;;;5031506;28;20232;-63
2021/08/21 00:32:08;;;;;;;4.13;2.23;;;14.30;99.90;;;;;;5034992;28;20235;-63
2021/08/21 00:34:36;;;;;;;2.37;2.17;;;14.20;99.90;;;;;;5026661;28;20246;-64
2021/08/21 00:37:05;;;;;;;3.87;2.37;;;14.20;99.90;;;;;;5019411;28;20292;-62
2021/08/21 00:39:33;;;;;;;2.63;2.30;;;14.10;99.90;;;;;;5025357;28;20233;-62
2021/08/21 00:42:02;;;;;;;3.37;2.00;;;14.00;99.90;;;;;;5024635;28;20282;-63
2021/08/21 00:44:30;;;;;;;3.80;2.50;;;13.90;99.90;;;;;;5022575;28;20237;-62
2021/08/21 00:47:07;;;;;;;2.53;2.23;;;14.00;99.90;;;;;;5025118;28;20241;-62
2021/08/21 00:49:39;;;;;;;2.20;2.00;;;14.00;99.90;;;;;;5025046;28;20311;-63
2021/08/21 00:52:12;;;;;;;2.53;2.20;;;13.90;99.90;;;;;;5026430;28;20243;-63
2021/08/21 00:54:42;;;;;;;2.50;2.30;;;13.90;99.90;;;;;;5041015;28;20236;-63
2021/08/21 00:57:14;;;;;;;2.70;2.50;;;13.90;99.90;;;;;;5026950;28;20244;-62
2021/08/21 00:59:44;;;;;;;2.43;2.23;;;13.90;99.90;;;;;;5029566;28;20232;-61
2021/08/21 01:02:15;;;;;;;2.47;2.27;;;13.90;99.90;;;;;;5033219;28;20704;-62
2021/08/21 01:04:46;;;;;;;5.27;2.50;;;14.00;99.90;;;;;;5012459;28;20294;-62
2021/08/21 01:07:18;;;;;;;2.87;2.43;;;14.00;99.90;;;;;;5024044;28;20343;-64
2021/08/21 01:09:47;;;;;;;3.67;2.50;;;13.80;99.90;;;;;;5040020;28;20268;-63
2021/08/21 01:12:17;;;;;;;3.93;2.50;;;13.90;99.90;;;;;;5023314;28;20236;-62
2021/08/21 01:14:48;;;;;;;3.00;2.27;;;13.80;99.90;;;;;;5023555;28;20239;-63
2021/08/21 01:17:17;;;;;;;3.60;2.20;;;13.90;99.90;;;;;;5022489;28;20311;-62
2021/08/21 01:19:49;;;;;;;2.30;2.10;;;13.80;99.90;;;;;;5019079;28;20243;-62
2021/08/21 01:22:22;;;;;;;2.50;2.30;;;13.70;99.90;;;;;;5021011;28;20286;-62
2021/08/21 01:24:51;;;;;;;2.83;2.17;;;13.80;99.90;;;;;;5021369;28;20809;-62
2021/08/21 01:27:22;;;;;;;2.60;2.40;;;13.70;99.90;;;;;;5023774;28;20236;-62
2021/08/21 01:30:08;;;;;;;2.90;2.50;;;13.80;99.90;;;;;;5033970;28;20235;-62
2021/08/21 01:32:44;;;;;;;3.97;2.63;;;13.60;99.90;;;;;;5043911;28;20292;-62
2021/08/21 01:35:14;;;;;;;2.97;2.30;;;13.50;99.90;;;;;;5060261;28;20254;-61
2021/08/21 01:37:43;;;;;;;3.33;2.67;;;13.50;99.90;;;;;;5045140;28;20402;-63
2021/08/21 01:40:34;;;;;;;5.00;2.70;;;13.60;99.90;;;;;;5045678;28;20315;-62
2021/08/21 01:43:13;;;;;;;5.40;3.57;;;13.70;99.90;;;;;;5047232;28;20247;-62
2021/08/21 01:45:47;;;;;;;4.23;3.80;;;13.70;99.90;;;;;;5048236;28;20250;-62
2021/08/21 01:48:18;;;;;;;5.50;3.33;;;13.70;99.90;;;;;;5041689;28;20224;-62
2021/08/21 01:50:47;;;;;;;3.80;3.40;;;13.60;99.90;;;;;;5042731;28;20238;-62
2021/08/21 01:53:17;;;;;;;3.50;3.20;;;13.50;99.90;;;;;;5051984;28;20782;-63
2021/08/21 01:55:47;;;;;;;4.10;3.27;;;13.50;99.90;;;;;;5051725;28;20325;-62
2021/08/21 01:58:53;;;;;;;3.87;3.57;;;13.50;99.90;;;;;;5020171;28;20236;-63
2021/08/21 02:01:31;;;;;;;4.73;3.90;;;13.60;99.90;;;;;;5041995;28;20600;-64
2021/08/21 02:04:21;;;;;;;4.93;3.60;;;13.50;99.90;;;;;;5026321;28;20244;-63
2021/08/21 02:06:52;;;;;;;5.03;3.10;;;13.50;99.90;;;;;;5040212;28;20287;-63
2021/08/21 02:09:23;;;;;;;3.43;3.10;;;13.40;99.90;;;;;;5021521;28;20228;-62
2021/08/21 02:11:53;;;;;;;5.03;3.33;;;13.30;99.90;;;;;;5039185;28;20642;-63
2021/08/21 02:14:24;;;;;;;5.03;3.63;;;13.40;99.90;;;;;;5029103;28;20799;-62
2021/08/21 02:16:54;;;;;;;3.43;3.13;;;13.40;99.90;;;;;;5023562;28;20279;-62
2021/08/21 02:19:23;;;;;;;3.97;3.53;;;13.50;99.90;;;;;;5037596;28;20668;-63
2021/08/21 02:22:14;;;;;;;4.10;3.70;;;13.60;99.90;;;;;;5037029;28;20240;-62
2021/08/21 02:24:51;;;;;;;3.47;3.17;;;13.50;99.90;;;;;;5061046;28;20243;-63
2021/08/21 02:27:25;;;;;;;4.17;3.17;;;13.30;99.90;;;;;;5042553;28;20696;-62
2021/08/21 02:29:54;;;;;;;3.50;3.13;;;13.30;99.90;;;;;;5040389;28;20238;-62
2021/08/21 02:32:22;;;;;;;4.20;3.00;;;13.20;99.90;;;;;;5025640;28;20714;-63
2021/08/21 02:34:50;;;;;;;3.07;2.77;;;13.30;99.90;;;;;;5049972;28;20765;-62
2021/08/21 02:37:19;;;;;;;2.97;2.77;;;13.30;99.90;;;;;;5037959;28;20231;-62
2021/08/21 02:39:48;;;;;;;3.30;3.00;;;13.20;99.90;;;;;;5041520;28;20239;-63
2021/08/21 02:42:16;;;;;;;3.67;3.00;;;13.20;99.90;;;;;;5036655;28;20227;-61
2021/08/21 02:44:45;;;;;;;3.10;2.60;;;13.20;99.90;;;;;;5044190;28;20250;-62
2021/08/21 02:47:14;;;;;;;5.23;2.70;;;13.30;99.90;;;;;;5042594;28;20237;-63
2021/08/21 02:49:42;;;;;;;3.57;2.80;;;13.40;99.90;;;;;;5036627;28;20288;-64
2021/08/21 02:52:10;;;;;;;3.63;3.10;;;13.40;99.90;;;;;;5039379;28;20231;-63
2021/08/21 02:54:38;;;;;;;3.53;2.83;;;13.40;99.90;;;;;;5032329;28;20235;-64
2021/08/21 02:57:07;;;;;;;3.60;2.97;;;13.30;99.90;;;;;;5040072;28;20247;-63
2021/08/21 02:59:35;;;;;;;3.57;3.23;;;13.20;99.90;;;;;;5045280;28;20242;-63
2021/08/21 03:02:07;;;;;;;4.17;2.83;;;13.30;99.90;;;;;;5054209;28;20296;-63
2021/08/21 03:04:42;;;;;;;3.53;2.80;;;13.30;99.90;;;;;;5020752;28;20282;-63
2021/08/21 03:07:12;;;;;;;3.43;3.07;;;13.50;99.90;;;;;;5043445;28;20314;-62
2021/08/21 03:09:52;;;;;;;3.77;3.00;;;13.40;99.90;;;;;;5037746;28;20251;-62
2021/08/21 03:12:29;;;;;;;4.07;3.10;;;13.40;99.90;;;;;;5040440;28;20243;-63
2021/08/21 03:15:02;;;;;;;3.47;3.17;;;13.50;99.90;;;;;;5026020;28;20244;-62
2021/08/21 03:17:30;;;;;;;3.40;3.10;;;13.50;99.90;;;;;;5023153;28;20613;-63
2021/08/21 03:20:00;;;;;;;3.50;2.77;;;13.50;99.90;;;;;;5025882;28;20240;-62
2021/08/21 03:22:32;;;;;;;4.63;3.10;;;13.60;99.90;;;;;;5026741;28;20239;-63
2021/08/21 03:25:00;;;;;;;3.70;3.40;;;13.50;99.90;;;;;;5029465;28;20672;-62
2021/08/21 03:27:29;;;;;;;3.77;3.47;;;13.40;99.90;;;;;;5031231;28;20315;-62
2021/08/21 03:29:58;;;;;;;4.27;3.33;;;13.60;99.90;;;;;;5029623;28;20267;-62
2021/08/21 03:32:26;;;;;;;4.73;3.80;;;13.60;99.90;;;;;;5028756;28;20262;-63
2021/08/21 03:34:56;;;;;;;4.67;3.60;;;13.80;99.90;;;;;;5038570;28;20297;-63
2021/08/21 03:37:27;;;;;;;6.53;4.37;;;13.80;99.90;;;;;;5028221;28;20716;-63
2021/08/21 03:39:56;;;;;;;5.23;4.00;;;13.80;99.90;;;;;;5025309;28;20232;-63
2021/08/21 03:42:24;;;;;;;6.37;5.20;;;13.80;99.90;;;;;;5027417;28;20277;-63
2021/08/21 03:45:00;;;;;;;6.07;4.90;;;13.80;99.90;;;;;;5036825;28;20272;-62
2021/08/21 03:47:29;;;;;;;5.50;5.00;;;13.80;99.90;;;;;;5017544;28;20789;-62
2021/08/21 03:49:57;;;;;;;5.50;5.00;;;13.70;99.90;;;;;;5024190;28;20804;-62
2021/08/21 03:52:26;;;;;;;5.87;5.27;;;13.70;99.90;;;;;;5022141;28;20288;-62
2021/08/21 03:54:55;;;;;;;5.93;5.33;;;13.70;99.90;;;;;;5020779;28;20327;-62
2021/08/21 03:57:23;;;;;;;8.33;7.23;;;13.80;99.90;;;;;;5020646;28;20314;-62
2021/08/21 03:59:52;;;;;;;8.40;7.50;;;13.60;99.90;;;;;;5034007;28;20287;-62
2021/08/21 04:02:20;;;;;;;9.03;7.30;;;13.60;99.90;;;;;;5025597;28;20266;-62
2021/08/21 04:04:49;;;;;;;8.17;7.20;;;13.70;99.90;;;;;;5037518;28;20263;-61
2021/08/21 04:07:18;;;;;;;7.23;6.53;;;13.80;99.90;;;;;;5020598;28;20243;-62
2021/08/21 04:09:48;;;;;;;8.30;7.13;;;13.80;99.90;;;;;;5026979;28;20239;-62
2021/08/21 04:12:18;;;;;;;10.03;7.83;;;13.90;99.90;;;;;;5023804;28;20243;-62
2021/08/21 04:15:01;;;;;;;8.47;7.37;;;13.70;99.90;;;;;;5041281;28;20247;-62
2021/08/21 04:17:29;;;;;;;9.80;8.70;;;13.80;99.90;;;;;;5030560;28;20278;-62
2021/08/21 04:19:57;;;;;;;11.50;10.17;;;13.80;99.90;;;;;;5033302;28;20276;-62
2021/08/21 04:22:25;;;;;;;12.70;10.47;;;13.80;99.90;;;;;;5027553;28;20306;-62
2021/08/21 04:24:58;;;;;;;9.40;6.87;;;13.80;99.90;;;;;;5028614;28;20242;-62
2021/08/21 04:27:26;;;;;;;10.17;7.60;;;13.90;99.90;;;;;;5024123;28;20572;-62
2021/08/21 04:29:55;;;;;;;6.93;6.30;;;13.90;99.90;;;;;;5026949;28;20301;-63
2021/08/21 04:32:23;;;;;;;7.37;6.43;;;13.90;99.90;;;;;;5021392;28;20263;-63
2021/08/21 04:34:52;;;;;;;7.57;5.13;;;13.90;99.90;;;;;;5028292;28;20604;-62
2021/08/21 04:37:21;;;;;;;3.73;3.43;;;13.90;99.90;;;;;;5032189;28;20581;-63
2021/08/21 04:39:50;;;;;;;5.20;4.60;;;13.80;99.90;;;;;;5024699;28;20666;-62
2021/08/21 04:42:23;;;;;;;6.13;5.53;;;13.70;99.90;;;;;;5034831;28;20228;-62
2021/08/21 04:44:58;;;;;;;6.57;5.07;;;13.60;99.90;;;;;;5025817;28;20725;-63
2021/08/21 04:47:30;;;;;;;5.17;4.70;;;13.60;99.90;;;;;;5024564;28;20236;-62
2021/08/21 04:49:58;;;;;;;6.40;3.70;;;13.50;99.90;;;;;;5042621;28;20251;-62
2021/08/21 04:52:29;;;;;;;4.83;3.40;;;13.50;99.90;;;;;;5028607;28;20597;-63
2021/08/21 04:54:57;;;;;;;5.73;3.30;;;13.60;99.90;;;;;;5024153;28;21348;-62
2021/08/21 04:57:27;;;;;;;4.20;3.80;;;13.70;99.90;;;;;;5022005;28;20276;-63
2021/08/21 04:59:55;;;;;;;6.77;4.63;;;13.80;99.90;;;;;;5029213;28;20320;-62
2021/08/21 05:02:23;;;;;;;6.63;4.47;;;14.00;99.90;;;;;;5026720;28;20601;-62
2021/08/21 05:04:51;;;;;;;5.87;4.50;;;14.20;99.90;;;;;;5028266;28;20766;-62
2021/08/21 05:07:20;;;;;;;5.70;4.90;;;14.10;99.90;;;;;;5030116;28;20236;-63
2021/08/21 05:09:49;;;;;;;7.07;5.23;;;14.20;99.90;;;;;;5026241;28;20717;-61
2021/08/21 05:12:22;;;;;;;5.70;5.10;;;14.10;99.90;;;;;;5024501;28;20690;-63
2021/08/21 05:15:12;;;;;;;7.30;6.60;;;14.00;99.90;;;;;;5026568;28;20243;-62
2021/08/21 05:17:40;;;;;;;8.23;5.60;;;14.00;99.90;;;;;;5042682;28;20731;-62
2021/08/21 05:20:29;;;;;;;7.67;5.87;;;14.10;99.90;;;;;;5034847;28;20239;-63
2021/08/21 05:23:15;;;;;;;8.23;5.80;;;14.20;99.90;;;;;;5036233;28;20607;-61
2021/08/21 05:25:45;;;;;;;10.20;6.50;;;14.30;99.90;;;;;;5036608;28;20643;-63
2021/08/21 05:28:16;;;;;;;6.23;5.47;;;14.30;99.90;;;;;;5022259;28;20272;-63
2021/08/21 05:30:47;;;;;;;5.53;4.80;;;14.20;99.90;;;;;;5022784;28;20322;-62
2021/08/21 05:33:17;;;;;;;5.80;4.80;;;14.20;99.90;;;;;;5025742;28;20772;-62
2021/08/21 05:35:49;;;;;;;5.23;4.17;;;14.20;99.90;;;;;;5019295;28;20314;-63
2021/08/21 05:38:18;;;;;;;5.57;4.93;;;14.20;99.90;;;;;;5012387;28;20228;-62
2021/08/21 05:40:46;;;;;;;5.40;4.87;;;14.20;99.90;;;;;;5021818;28;20258;-63
2021/08/21 05:43:14;;;;;;;5.13;4.63;;;14.30;99.90;;;;;;5015189;28;20229;-62
2021/08/21 05:45:43;;;;;;;5.27;3.97;;;14.30;99.90;;;;;;5021928;28;20748;-61
2021/08/21 05:48:12;;;;;;;6.17;5.47;;;14.40;99.90;;;;;;5024972;28;20291;-63
2021/08/21 05:50:40;;;;;;;6.60;4.73;;;14.40;99.90;;;;;;5024494;28;20232;-62
2021/08/21 05:53:08;;;;;;;7.37;5.43;;;14.50;99.90;;;;;;5014191;28;20291;-62
2021/08/21 05:55:37;;;;;;;7.33;6.30;;;14.60;99.90;;;;;;5024599;28;20241;-62
2021/08/21 05:58:11;;;;;;;7.73;6.63;;;14.60;99.90;;;;;;5019204;28;20685;-62
2021/08/21 06:00:45;;;;;;;6.53;5.37;;;14.60;99.90;;;;;;5039993;28;20239;-61
2021/08/21 06:03:17;;;;;;;9.97;6.50;;;14.70;99.90;;;;;;5018480;28;20819;-63
2021/08/21 06:05:45;;;;;;;8.00;6.87;;;14.80;99.90;;;;;;5022889;28;20231;-62
2021/08/21 06:08:13;;;;;;;7.83;6.90;;;14.80;99.90;;;;;;5021613;28;20229;-62
2021/08/21 06:10:44;;;;;;;6.97;6.23;;;15.00;99.90;;;;;;5015205;28;20244;-62
2021/08/21 06:13:19;;;;;;;10.90;8.73;;;14.90;99.90;;;;;;5017472;28;20259;-63
2021/08/21 06:15:48;;;;;;;13.27;9.23;;;15.00;99.90;;;;;;5017886;28;20344;-63
2021/08/21 06:18:17;;;;;;;11.03;8.43;;;15.10;99.90;;;;;;5013642;28;20232;-62
2021/08/21 06:20:45;;;;;;;13.10;8.53;;;15.20;99.90;;;;;;5022677;28;20386;-62
2021/08/21 06:23:16;;;;;;;9.17;7.97;;;15.30;99.90;;;;;;5017404;28;20247;-62
2021/08/21 06:25:44;;;;;;;12.10;9.43;;;15.40;99.90;;;;;;5018183;28;21416;-63
2021/08/21 06:28:12;;;;;;;10.87;8.83;;;15.40;99.90;;;;;;5023896;28;20267;-63
2021/08/21 06:30:40;;;;;;;8.80;7.90;;;15.50;99.90;;;;;;5018839;28;20237;-63
2021/08/21 06:33:08;;;;;;;15.53;9.93;;;15.50;99.90;;;;;;5022662;28;20268;-64
2021/08/21 06:35:38;;;;;;;10.83;8.83;;;15.40;99.90;;;;;;5021642;28;20302;-63
2021/08/21 06:38:06;;;;;;;11.93;9.00;;;15.40;99.90;;;;;;5018138;28;20254;-63
2021/08/21 06:40:35;;;;;;;11.60;8.70;;;15.40;99.90;;;;;;5023224;28;20339;-62
2021/08/21 06:43:03;;;;;;;10.77;9.03;;;15.80;99.90;;;;;;5018361;28;20618;-63
2021/08/21 06:45:54;;;;;;;12.03;9.30;;;15.90;99.90;;;;;;5046297;28;20232;-62
2021/08/21 06:48:22;;;;;;;9.93;8.03;;;15.90;99.90;;;;;;5055929;28;20227;-63
2021/08/21 06:50:52;;;;;;;10.30;7.63;;;15.90;99.90;;;;;;5044666;28;20322;-63
2021/08/21 06:53:20;;;;;;;9.03;7.00;;;15.90;99.90;;;;;;5045012;28;20281;-62
2021/08/21 06:55:48;;;;;;;8.07;7.27;;;16.10;99.90;;;;;;5044872;28;20239;-62
2021/08/21 06:58:19;;;;;;;8.80;6.20;;;16.20;99.90;;;;;;5045510;28;20993;-63
2021/08/21 07:00:47;;;;;;;7.17;5.77;;;16.30;99.90;;;;;;5045727;28;20322;-63
2021/08/21 07:03:16;;;;;;;7.00;5.80;;;16.30;99.90;;;;;;5047337;28;20294;-62
2021/08/21 07:05:44;;;;;;;9.20;5.77;;;16.40;99.90;;;;;;5046177;28;20241;-64
2021/08/21 07:08:13;;;;;;;7.23;5.33;;;16.30;99.90;;;;;;5048225;28;20236;-63
2021/08/21 07:10:42;;;;;;;8.20;5.77;;;16.50;99.90;;;;;;5053346;28;20262;-64
2021/08/21 07:13:10;;;;;;;8.07;5.40;;;16.50;99.90;;;;;;5054318;28;20233;-63
2021/08/21 07:15:38;;;;;;;8.67;5.43;;;16.50;99.90;;;;;;5054176;28;20317;-63
2021/08/21 07:18:06;;;;;;;6.17;5.27;;;16.60;99.90;;;;;;5055669;28;20246;-62
2021/08/21 07:20:34;;;;;;;5.60;4.90;;;16.70;99.90;;;;;;5049186;28;20263;-62
2021/08/21 07:23:02;;;;;;;7.63;5.33;;;16.80;99.90;;;;;;5057084;28;20221;-63
2021/08/21 07:25:32;;;;;;;5.33;4.90;;;16.90;99.90;;;;;;5047930;28;20260;-62
2021/08/21 07:28:00;;;;;;;7.67;5.30;;;17.00;99.90;;;;;;5056871;28;20306;-63
2021/08/21 07:30:28;;;;;;;8.03;4.97;;;17.10;99.90;;;;;;5052259;28;20711;-63
2021/08/21 07:32:56;;;;;;;4.70;4.30;;;17.40;99.90;;;;;;5050141;28;20227;-62
2021/08/21 07:35:25;;;;;;;4.77;4.20;;;17.50;99.90;;;;;;5053433;28;20252;-62
2021/08/21 07:37:53;;;;;;;5.23;4.20;;;17.60;99.90;;;;;;5054779;28;20225;-62
2021/08/21 07:40:22;;;;;;;4.27;3.70;;;17.50;99.90;;;;;;5053363;28;20229;-62
2021/08/21 07:42:51;;;;;;;4.27;3.80;;;17.50;99.90;;;;;;5058763;28;20423;-63
2021/08/21 07:45:19;;;;;;;4.53;4.10;;;17.60;99.90;;;;;;5056638;28;20282;-63
2021/08/21 07:47:49;;;;;;;6.97;4.13;;;17.50;99.90;;;;;;5056578;28;20232;-62
2021/08/21 07:50:18;;;;;;;6.57;4.07;;;17.70;99.90;;;;;;5044182;28;20717;-64
2021/08/21 07:52:47;;;;;;;5.00;3.87;;;17.80;99.90;;;;;;5057039;28;20249;-63
2021/08/21 07:55:15;;;;;;;4.00;3.37;;;17.70;99.90;;;;;;5055115;28;20655;-64
2021/08/21 07:57:43;;;;;;;4.57;3.40;;;17.60;99.90;;;;;;5060182;28;20334;-62
2021/08/21 08:00:15;;;;;;;5.73;3.57;;;17.50;99.90;;;;;;5051844;28;20324;-62
2021/08/21 08:02:44;;;;;;;4.67;3.13;;;17.60;99.90;;;;;;5060129;28;20237;-63
2021/08/21 08:05:13;;;;;;;3.70;3.40;;;17.70;99.90;;;;;;5052653;28;20282;-62
2021/08/21 08:07:41;;;;;;;4.10;3.70;;;17.90;99.90;;;;;;5058726;28;20238;-62
2021/08/21 08:10:10;;;;;;;3.93;3.20;;;18.00;99.90;;;;;;5051040;28;20236;-63
2021/08/21 08:12:38;;;;;;;5.17;3.77;;;18.10;99.90;;;;;;5061166;28;20240;-63
2021/08/21 08:15:07;;;;;;;4.17;3.57;;;18.00;99.90;;;;;;5051068;28;20241;-63
2021/08/21 08:17:36;;;;;;;3.97;3.20;;;18.20;99.90;;;;;;5057370;28;20693;-63
2021/08/21 08:20:07;;;;;;;5.17;3.03;;;18.40;99.90;;;;;;5050440;28;20336;-63
2021/08/21 08:22:35;;;;;;;5.00;3.03;;;18.50;99.90;;;;;;5048819;28;20350;-63
2021/08/21 08:25:04;;;;;;;4.77;3.50;;;18.50;99.90;;;;;;5048745;28;20765;-63
2021/08/21 08:27:32;;;;;;;4.27;2.57;;;18.70;99.90;;;;;;5048456;28;20241;-63
2021/08/21 08:30:00;;;;;;;3.50;2.47;;;18.80;99.90;;;;;;5028200;28;20760;-62
2021/08/21 08:32:28;;;;;;;2.87;2.50;;;18.90;99.90;;;;;;5026850;28;20334;-63
2021/08/21 08:34:58;;;;;;;3.63;2.30;;;19.00;99.90;;;;;;5028504;28;20326;-62
2021/08/21 08:37:25;;;;;;;3.47;2.30;;;19.10;99.90;;;;;;5028219;28;20242;-63
2021/08/21 08:39:54;;;;;;;5.30;2.00;;;19.10;99.90;;;;;;5032929;28;20528;-63
2021/08/21 08:42:22;;;;;;;3.43;2.30;;;19.40;99.90;;;;;;5021703;28;20235;-64
2021/08/21 08:44:50;;;;;;;4.77;2.60;;;19.40;99.90;;;;;;5024025;28;20240;-63
2021/08/21 08:47:20;;;;;;;4.60;2.57;;;19.30;99.90;;;;;;5020022;28;20238;-63
2021/08/21 08:49:49;;;;;;;3.93;2.10;;;19.20;99.90;;;;;;5027026;28;20567;-64
2021/08/21 08:52:20;;;;;;;2.63;2.20;;;19.20;99.90;;;;;;5024626;28;20235;-63
2021/08/21 08:54:48;;;;;;;3.77;2.07;;;19.50;99.90;;;;;;5020769;28;20240;-63
2021/08/21 08:57:33;;;;;;;4.00;2.00;;;19.80;99.90;;;;;;5024362;28;20238;-63
2021/08/21 09:00:02;;;;;;;5.60;2.27;;;19.80;99.90;;;;;;5026279;28;20241;-63
2021/08/21 09:02:37;;;;;;;5.00;2.40;;;20.00;99.90;;;;;;5019093;28;20240;-63
2021/08/21 09:05:08;;;;;;;3.90;2.10;;;19.90;99.90;;;;;;5045213;28;20302;-63
2021/08/21 09:07:48;;;;;;;2.60;1.83;;;19.80;99.90;;;;;;5049800;28;20326;-63
2021/08/21 09:10:20;;;;;;;2.27;1.80;;;20.20;99.90;;;;;;5044928;28;20625;-63
2021/08/21 09:12:49;;;;;;;2.57;2.10;;;20.30;99.90;;;;;;5058055;28;20238;-62
2021/08/21 09:15:23;;;;;;;3.33;2.00;;;20.10;99.90;;;;;;5050758;28;20231;-63
2021/08/21 09:18:06;;;;;;;2.63;1.90;;;20.10;99.90;;;;;;5052094;28;20661;-64
2021/08/21 09:20:51;;;;;;;2.53;1.80;;;20.00;99.90;;;;;;5039194;28;20239;-64
2021/08/21 09:23:23;;;;;;;3.43;1.80;;;20.20;99.90;;;;;;5039935;28;20281;-64
2021/08/21 09:25:54;;;;;;;4.60;1.70;;;20.50;99.90;;;;;;5041344;28;20231;-63
2021/08/21 09:28:24;;;;;;;2.30;1.87;;;20.70;99.90;;;;;;5040889;28;20235;-63
2021/08/21 09:31:05;;;;;;;2.03;1.77;;;21.00;99.90;;;;;;5035420;28;20786;-63
2021/08/21 09:33:35;;;;;;;3.17;1.70;;;21.00;99.90;;;;;;5040760;28;20714;-62
2021/08/21 09:36:04;;;;;;;4.10;1.83;;;21.20;99.90;;;;;;5045577;28;20250;-62
2021/08/21 09:38:35;;;;;;;2.90;1.47;;;21.50;99.90;;;;;;5047527;28;20246;-63
2021/08/21 09:41:06;;;;;;;3.77;1.80;;;21.80;99.90;;;;;;5046730;28;20711;-63
2021/08/21 09:43:36;;;;;;;3.07;1.90;;;21.60;99.90;;;;;;5039736;28;20293;-63
2021/08/21 09:46:12;;;;;;;3.73;1.70;;;21.50;99.90;;;;;;5041110;28;20248;-62
2021/08/21 09:49:00;;;;;;;2.43;1.73;;;21.40;99.90;;;;;;5035965;28;20246;-63
2021/08/21 09:51:47;;;;;;;3.60;1.73;;;21.30;99.90;;;;;;5044956;28;20732;-62
2021/08/21 09:54:19;;;;;;;5.17;1.80;;;21.50;99.90;;;;;;5038679;28;20219;-62
2021/08/21 09:56:53;;;;;;;2.33;1.60;;;21.70;99.90;;;;;;5037249;28;20301;-63
2021/08/21 09:59:35;;;;;;;2.73;1.67;;;22.40;99.90;;;;;;5044003;28;20239;-62
2021/08/21 10:02:07;;;;;;;1.57;1.30;;;23.20;99.90;;;;;;5025973;28;20244;-63
2021/08/21 10:04:36;;;;;;;2.77;1.40;;;23.80;99.90;;;;;;5030968;28;20315;-62
2021/08/21 10:07:07;;;;;;;2.23;1.20;;;23.90;99.90;;;;;;5026057;28;20245;-63
2021/08/21 10:09:38;;;;;;;1.23;1.13;;;23.80;99.90;;;;;;5017510;28;20242;-62
2021/08/21 10:12:10;;;;;;;3.00;1.13;;;24.30;99.90;;;;;;5013540;28;20698;-63
2021/08/21 10:14:40;;;;;;;2.00;1.07;;;24.40;99.90;;;;;;5012755;28;20291;-63
2021/08/21 10:17:10;;;;;;;1.70;1.50;;;24.40;99.90;;;;;;5024341;28;20247;-63
2021/08/21 10:19:38;;;;;;;1.60;1.00;;;24.40;99.90;;;;;;5017493;28;20228;-64
2021/08/21 10:22:08;;;;;;;1.60;1.20;;;24.30;99.90;;;;;;5020317;28;20234;-63
2021/08/21 10:24:40;;;;;;;1.83;1.20;;;24.60;99.90;;;;;;5022727;28;20280;-64
2021/08/21 10:27:13;;;;;;;1.40;1.30;;;24.70;99.90;;;;;;5022398;28;20385;-64
2021/08/21 10:29:41;;;;;;;1.87;1.10;;;24.70;99.90;;;;;;5022054;28;20322;-64
2021/08/21 10:32:31;;;;;;;2.43;1.50;;;24.90;99.90;;;;;;5018809;28;20245;-63
2021/08/21 10:34:59;;;;;;;3.90;1.47;;;25.00;99.90;;;;;;5020328;28;20312;-63
2021/08/21 10:37:35;;;;;;;3.93;2.90;;;25.20;99.90;;;;;;5021509;28;20246;-63
2021/08/21 10:40:38;;;;;;;3.77;3.00;;;25.00;99.90;;;;;;5045896;28;20237;-63
2021/08/21 10:43:08;;;;;;;2.60;1.83;;;24.50;99.90;;;;;;5047871;28;20267;-63
2021/08/21 10:45:47;;;;;;;3.40;2.37;;;24.20;99.90;;;;;;5052435;28;20596;-63
2021/08/21 10:48:52;;;;;;;3.93;3.00;;;24.30;99.90;;;;;;5048975;28;20481;-64
2021/08/21 10:51:36;;;;;;;5.07;3.90;;;24.50;99.90;;;;;;5053127;28;20266;-64
2021/08/21 10:54:53;;;;;;;5.43;3.53;;;24.50;99.90;;;;;;5044927;28;20334;-63
2021/08/21 10:57:31;;;;;;;4.83;3.40;;;24.90;99.90;;;;;;4946894;28;20247;-63
2021/08/21 11:00:00;;;;;;;4.47;3.20;;;25.00;99.90;;;;;;5008311;28;20247;-64
2021/08/21 11:02:43;;;;;;;3.57;2.90;;;24.90;99.90;;;;;;5024997;28;20323;-63
2021/08/21 11:05:54;;;;;;;5.17;3.73;;;24.60;99.90;;;;;;5023941;28;20245;-64
2021/08/21 11:08:24;;;;;;;9.00;5.97;;;24.90;99.90;;;;;;5028100;28;20704;-63
2021/08/21 11:11:25;;;;;;;4.77;3.90;;;25.20;99.90;;;;;;5045818;28;20239;-64
2021/08/21 11:13:59;;;;;;;3.20;2.57;;;25.40;99.90;;;;;;5040818;28;20319;-62
2021/08/21 11:16:48;;;;;;;5.60;3.97;;;25.20;99.90;;;;;;5043781;28;20641;-63
2021/08/21 11:19:47;;;;;;;3.40;3.10;;;25.30;99.90;;;;;;5026646;28;20304;-63
2021/08/21 11:22:24;;;;;;;3.10;2.63;;;25.20;99.90;;;;;;5024480;28;20292;-63
2021/08/21 11:25:13;;;;;;;3.93;3.50;;;24.90;99.90;;;;;;5025299;28;20700;-64
2021/08/21 11:27:45;;;;;;;4.37;3.93;;;24.60;99.90;;;;;;5025058;28;20319;-63
2021/08/21 11:30:27;;;;;;;5.17;4.30;;;24.50;99.90;;;;;;5022225;28;20797;-64
2021/08/21 11:33:13;;;;;;;4.10;3.70;;;24.40;99.90;;;;;;5014692;28;20320;-63
2021/08/21 11:35:51;;;;;;;4.70;3.40;;;24.60;99.90;;;;;;5021258;28;20253;-63
2021/08/21 11:38:27;;;;;;;6.07;3.90;;;24.70;99.90;;;;;;5012836;28;20234;-63
2021/08/21 11:40:57;;;;;;;4.37;2.93;;;24.80;99.90;;;;;;5017587;28;20236;-63
2021/08/21 11:43:27;;;;;;;6.87;3.53;;;24.80;99.90;;;;;;5023046;28;20238;-63
2021/08/21 11:45:58;;;;;;;3.83;3.43;;;24.60;99.90;;;;;;5021029;28;20296;-63
2021/08/21 11:48:28;;;;;;;3.40;2.90;;;24.20;99.90;;;;;;5018162;28;20257;-64
2021/08/21 11:50:56;;;;;;;3.10;2.80;;;24.10;99.90;;;;;;5020270;28;20268;-62
2021/08/21 11:53:26;;;;;;;3.87;2.90;;;24.40;99.90;;;;;;5024142;28;20726;-63
2021/08/21 11:55:55;;;;;;;3.20;2.90;;;24.70;99.90;;;;;;5019442;28;20675;-63
2021/08/21 11:58:31;;;;;;;3.80;3.30;;;25.00;99.90;;;;;;5016851;28;20235;-65
2021/08/21 12:01:21;;;;;;;5.03;4.23;;;25.20;99.90;;;;;;5017393;28;20618;-63
2021/08/21 12:06:37;;;;;;;13.63;12.33;;;25.00;99.90;;;;;;5018991;28;20342;-64
2021/08/21 12:09:09;;;;;;;7.33;6.53;;;24.80;99.90;;;;;;5013359;28;20689;-62
2021/08/21 12:11:39;;;;;;;7.10;6.40;;;24.80;99.90;;;;;;5023489;28;20267;-64
2021/08/21 12:14:08;;;;;;;4.47;4.07;;;24.90;99.90;;;;;;5023393;28;20606;-62
2021/08/21 12:16:39;;;;;;;4.90;4.17;;;24.90;99.90;;;;;;5038092;28;20319;-67
2021/08/21 12:19:07;;;;;;;4.80;3.73;;;24.90;99.90;;;;;;5020711;28;20281;-62
2021/08/21 12:21:37;;;;;;;5.77;3.70;;;24.70;99.90;;;;;;5018559;28;20264;-63
2021/08/21 12:24:09;;;;;;;3.70;3.10;;;24.80;99.90;;;;;;5020775;28;20721;-63
2021/08/21 12:26:38;;;;;;;6.83;3.40;;;24.80;99.90;;;;;;5051242;28;20295;-60
2021/08/21 12:29:20;;;;;;;5.03;3.20;;;24.80;99.90;;;;;;5054849;28;20227;-62
2021/08/21 12:31:50;;;;;;;8.03;4.03;;;24.60;99.90;;;;;;5047479;28;20368;-63
2021/08/21 12:34:20;;;;;;;3.60;3.30;;;24.50;99.90;;;;;;5042429;28;20234;-62
2021/08/21 12:36:49;;;;;;;7.63;2.97;;;24.20;99.90;;;;;;5041752;28;20610;-61
2021/08/21 12:39:22;;;;;;;36.43;6.43;;;24.30;99.90;;;;;;5041342;28;20253;-61
2021/08/21 12:41:52;;;;;;;6.63;4.00;;;24.30;99.90;;;;;;5043284;28;20890;-61
2021/08/21 12:44:22;;;;;;;5.27;3.67;;;24.40;99.90;;;;;;5042626;28;20235;-62
2021/08/21 12:46:54;;;;;;;6.90;3.90;;;24.50;99.90;;;;;;5044001;28;20240;-64
2021/08/21 12:49:33;;;;;;;6.50;4.27;;;24.60;99.90;;;;;;5045727;28;20257;-63
2021/08/21 12:52:04;;;;;;;9.87;4.20;;;24.70;99.90;;;;;;5046374;28;20240;-62
2021/08/21 12:54:34;;;;;;;7.70;4.17;;;24.50;99.90;;;;;;5042526;28;20240;-62
2021/08/21 12:57:08;;;;;;;3.70;3.20;;;24.60;99.90;;;;;;5044951;28;20675;-60
2021/08/21 12:59:37;;;;;;;5.33;3.40;;;24.20;99.90;;;;;;5040159;28;20278;-61
2021/08/21 13:02:09;;;;;;;5.43;4.20;;;24.40;99.90;;;;;;5047463;28;20586;-66
2021/08/21 13:04:39;;;;;;;6.30;4.67;;;24.40;99.90;;;;;;5045871;28;20274;-65
2021/08/21 13:07:09;;;;;;;34.03;6.47;;;24.30;99.90;;;;;;5045053;28;20804;-63
2021/08/21 13:09:39;;;;;;;24.73;5.90;;;24.20;99.90;;;;;;5042729;28;20288;-64
2021/08/21 13:12:08;;;;;;;11.93;4.93;;;24.40;99.90;;;;;;5046578;28;20802;-63
2021/08/21 13:14:37;;;;;;;7.10;5.00;;;24.50;99.90;;;;;;5042977;28;20226;-60